createdAt,value
2022-09-25T00:01:37.150Z,14.20
2022-09-25T00:04:10.819Z,18.00
2022-09-25T00:06:44.423Z,16.88
2022-09-25T00:09:20.461Z,15.20
2022-09-25T00:11:53.934Z,21.65
2022-09-25T00:14:27.523Z,13.13
2022-09-25T00:17:02.445Z,13.00
2022-09-25T00:19:50.262Z,13.95
2022-09-25T00:22:26.262Z,13.95
2022-09-25T00:25:00.652Z,27.58
2022-09-25T00:27:34.079Z,36.40
2022-09-25T00:30:09.060Z,30.48
2022-09-25T00:32:43.908Z,26.20
2022-09-25T00:35:17.632Z,14.07
2022-09-25T00:37:51.061Z,11.95
2022-09-25T00:40:24.893Z,14.10
2022-09-25T00:42:58.399Z,13.57
2022-09-25T00:45:32.148Z,15.38
2022-09-25T00:48:08.462Z,18.45
2022-09-25T00:50:48.343Z,17.92
2022-09-25T00:53:26.862Z,11.25
2022-09-25T00:56:01.924Z,10.43
2022-09-25T00:58:38.639Z,10.45
2022-09-25T01:01:12.805Z,11.63
2022-09-25T01:03:48.025Z,9.65
2022-09-25T01:06:22.006Z,12.70
2022-09-25T01:08:56.782Z,14.65
2022-09-25T01:11:31.163Z,12.45
2022-09-25T01:14:07.207Z,13.35
2022-09-25T01:16:47.066Z,9.88
2022-09-25T01:19:33.031Z,11.98
2022-09-25T01:22:17.032Z,10.85
2022-09-25T01:25:04.660Z,12.07
2022-09-25T01:28:02.146Z,10.82
2022-09-25T01:30:42.894Z,10.50
2022-09-25T01:33:22.744Z,13.98
2022-09-25T01:36:01.920Z,11.93
2022-09-25T01:38:41.523Z,11.60
2022-09-25T01:41:22.173Z,11.73
2022-09-25T01:44:01.785Z,12.20
2022-09-25T01:46:41.881Z,12.90
2022-09-25T01:49:20.535Z,14.82
2022-09-25T01:51:56.177Z,13.07
2022-09-25T01:54:36.082Z,13.45
2022-09-25T01:57:13.513Z,13.65
2022-09-25T01:59:50.738Z,11.98
2022-09-25T02:02:31.489Z,11.07
2022-09-25T02:05:10.725Z,12.18
2022-09-25T02:07:49.826Z,11.75
2022-09-25T02:10:28.356Z,11.88
2022-09-25T02:13:09.427Z,12.63
2022-09-25T02:15:47.469Z,9.60
2022-09-25T02:18:41.047Z,9.73
2022-09-25T02:21:19.451Z,10.00
2022-09-25T02:23:57.842Z,9.93
2022-09-25T02:26:33.207Z,9.40
2022-09-25T02:29:08.898Z,9.55
2022-09-25T02:31:45.991Z,10.13
2022-09-25T02:34:21.775Z,9.75
2022-09-25T02:36:55.566Z,9.50
2022-09-25T02:39:31.346Z,11.30
2022-09-25T02:42:21.505Z,8.15
2022-09-25T02:45:11.863Z,7.85
2022-09-25T02:47:55.845Z,7.78
2022-09-25T02:50:38.762Z,6.80
2022-09-25T02:53:19.753Z,7.00
2022-09-25T02:55:58.796Z,5.97
2022-09-25T02:58:38.268Z,7.22
2022-09-25T03:01:16.151Z,6.80
2022-09-25T03:03:53.239Z,7.35
2022-09-25T03:06:29.246Z,7.43
2022-09-25T03:09:05.323Z,6.97
2022-09-25T03:11:40.950Z,7.00
2022-09-25T03:14:14.502Z,7.78
2022-09-25T03:16:51.534Z,7.25
2022-09-25T03:19:28.688Z,8.20
2022-09-25T03:22:03.979Z,8.23
2022-09-25T03:24:38.613Z,6.97
2022-09-25T03:27:12.052Z,6.57
2022-09-25T03:29:45.657Z,7.70
2022-09-25T03:32:19.205Z,6.53
2022-09-25T03:34:52.717Z,7.22
2022-09-25T03:37:27.520Z,6.38
2022-09-25T03:40:01.331Z,6.05
2022-09-25T03:42:34.773Z,6.82
2022-09-25T03:45:10.461Z,7.50
2022-09-25T03:47:43.996Z,7.28
2022-09-25T03:50:17.629Z,6.20
2022-09-25T03:52:52.637Z,8.15
2022-09-25T03:55:26.599Z,7.13
2022-09-25T03:58:00.158Z,6.93
2022-09-25T04:00:33.603Z,7.03
2022-09-25T04:03:07.204Z,7.28
2022-09-25T04:05:40.673Z,5.85
2022-09-25T04:08:16.218Z,7.68
2022-09-25T04:10:49.649Z,6.90
2022-09-25T04:13:23.441Z,6.50
2022-09-25T04:15:57.345Z,7.45
2022-09-25T04:18:32.296Z,7.80
2022-09-25T04:21:08.387Z,5.88
2022-09-25T04:24:04.266Z,7.38
2022-09-25T04:26:37.882Z,7.90
2022-09-25T04:29:11.504Z,6.70
2022-09-25T04:32:05.039Z,7.05
2022-09-25T04:34:37.546Z,7.32
2022-09-25T04:39:46.053Z,6.18
2022-09-25T04:42:20.194Z,6.50
2022-09-25T04:44:54.652Z,6.72
2022-09-25T04:47:30.201Z,7.10
2022-09-25T04:50:03.713Z,6.93
2022-09-25T04:52:37.266Z,7.00
2022-09-25T04:55:12.285Z,7.18
2022-09-25T04:57:58.252Z,6.78
2022-09-25T05:00:33.809Z,6.32
2022-09-25T05:03:07.747Z,6.47
2022-09-25T05:05:41.239Z,6.82
2022-09-25T05:08:14.756Z,6.55
2022-09-25T05:10:49.579Z,6.50
2022-09-25T05:13:23.490Z,6.47
2022-09-25T05:15:57.471Z,7.57
2022-09-25T05:18:31.173Z,7.95
2022-09-25T05:21:05.787Z,7.28
2022-09-25T05:23:39.456Z,6.85
2022-09-25T05:26:14.499Z,7.18
2022-09-25T05:28:50.524Z,7.65
2022-09-25T05:31:24.058Z,7.00
2022-09-25T05:33:57.545Z,5.57
2022-09-25T05:36:30.976Z,7.13
2022-09-25T05:39:04.455Z,6.68
2022-09-25T05:41:39.257Z,7.43
2022-09-25T05:44:13.017Z,6.68
2022-09-25T05:46:46.583Z,6.20
2022-09-25T05:49:20.014Z,6.60
2022-09-25T05:51:53.569Z,6.53
2022-09-25T05:54:27.223Z,7.40
2022-09-25T05:57:02.083Z,7.95
2022-09-25T05:59:35.631Z,5.85
2022-09-25T06:02:12.381Z,7.22
2022-09-25T06:04:45.828Z,8.40
2022-09-25T06:07:19.440Z,7.13
2022-09-25T06:09:53.011Z,6.75
2022-09-25T06:12:30.416Z,7.53
2022-09-25T06:15:04.307Z,6.45
2022-09-25T06:17:37.762Z,6.90
2022-09-25T06:20:16.059Z,6.88
2022-09-25T06:22:54.298Z,6.38
2022-09-25T06:25:30.130Z,7.03
2022-09-25T06:28:06.100Z,6.40
2022-09-25T06:30:40.187Z,5.80
2022-09-25T06:33:15.670Z,6.97
2022-09-25T06:35:50.146Z,6.13
2022-09-25T06:38:23.634Z,5.72
2022-09-25T06:40:59.857Z,6.40
2022-09-25T06:43:35.321Z,4.57
2022-09-25T06:46:08.864Z,5.30
2022-09-25T06:48:42.679Z,5.43
2022-09-25T06:51:16.344Z,5.05
2022-09-25T06:53:49.818Z,5.47
2022-09-25T06:56:23.605Z,4.40
2022-09-25T06:58:58.479Z,5.47
2022-09-25T07:01:32.033Z,6.57
2022-09-25T07:04:04.642Z,5.25
2022-09-25T07:09:11.762Z,5.95
2022-09-25T07:11:47.228Z,5.43
2022-09-25T07:14:22.052Z,5.38
2022-09-25T07:16:55.503Z,6.45
2022-09-25T07:19:28.991Z,5.57
2022-09-25T07:22:04.087Z,5.78
2022-09-25T07:24:39.009Z,6.05
2022-09-25T07:27:12.521Z,6.35
2022-09-25T07:29:47.403Z,6.75
2022-09-25T07:32:20.923Z,6.63
2022-09-25T07:34:54.386Z,6.82
2022-09-25T07:37:27.820Z,6.80
2022-09-25T07:40:01.348Z,6.47
2022-09-25T07:42:35.102Z,7.13
2022-09-25T07:45:11.586Z,9.40
2022-09-25T07:47:44.991Z,7.93
2022-09-25T07:50:18.519Z,7.75
2022-09-25T07:52:51.941Z,8.40
2022-09-25T07:55:28.267Z,6.72
2022-09-25T07:58:01.692Z,7.60
2022-09-25T08:00:36.512Z,6.43
2022-09-25T08:03:11.431Z,6.22
2022-09-25T08:05:44.932Z,5.30
2022-09-25T08:08:18.467Z,4.18
2022-09-25T08:10:51.911Z,4.88
2022-09-25T08:13:25.642Z,5.32
2022-09-25T08:16:00.822Z,4.88
2022-09-25T08:18:34.916Z,4.15
2022-09-25T08:21:09.283Z,4.55
2022-09-25T08:23:47.745Z,5.43
2022-09-25T08:26:23.161Z,4.55
2022-09-25T08:28:57.094Z,4.00
2022-09-25T08:31:32.231Z,3.65
2022-09-25T08:34:21.383Z,3.80
2022-09-25T08:36:59.430Z,3.78
2022-09-25T08:39:32.839Z,3.50
2022-09-25T08:42:06.842Z,3.78
2022-09-25T08:44:56.974Z,3.65
2022-09-25T08:47:56.514Z,4.22
2022-09-25T08:50:30.803Z,4.22
2022-09-25T08:53:08.782Z,3.33
2022-09-25T08:55:56.905Z,2.88
2022-09-25T08:58:33.536Z,3.33
2022-09-25T09:01:08.984Z,4.03
2022-09-25T09:03:48.249Z,3.65
2022-09-25T09:06:25.353Z,3.42
2022-09-25T09:09:03.382Z,3.63
2022-09-25T09:11:42.792Z,2.92
2022-09-25T09:14:20.572Z,3.53
2022-09-25T09:17:01.480Z,3.40
2022-09-25T09:19:38.275Z,3.85
2022-09-25T09:22:13.394Z,3.83
2022-09-25T09:24:56.244Z,3.10
2022-09-25T09:27:47.373Z,3.70
2022-09-25T09:30:23.857Z,3.47
2022-09-25T09:33:16.103Z,3.53
2022-09-25T09:36:05.279Z,4.15
2022-09-25T09:38:46.621Z,4.43
2022-09-25T09:41:33.738Z,4.05
2022-09-25T09:44:23.125Z,4.38
2022-09-25T09:47:04.288Z,4.82
2022-09-25T09:49:41.970Z,5.10
2022-09-25T09:52:21.825Z,5.22
2022-09-25T09:54:58.427Z,5.10
2022-09-25T09:57:34.793Z,5.65
2022-09-25T10:00:15.273Z,5.63
2022-09-25T10:02:54.150Z,6.43
2022-09-25T10:05:31.296Z,6.43
2022-09-25T10:08:06.248Z,8.90
2022-09-25T10:10:41.973Z,9.10
2022-09-25T10:13:19.451Z,6.35
2022-09-25T10:15:58.522Z,5.10
2022-09-25T10:18:37.977Z,4.57
2022-09-25T10:21:15.045Z,5.38
2022-09-25T10:23:54.131Z,5.93
2022-09-25T10:26:30.729Z,4.82
2022-09-25T10:29:07.851Z,5.38
2022-09-25T10:31:42.864Z,5.68
2022-09-25T10:34:22.419Z,4.95
2022-09-25T10:36:56.463Z,5.80
2022-09-25T10:39:49.486Z,5.60
2022-09-25T10:42:37.340Z,5.25
2022-09-25T10:45:28.177Z,5.13
2022-09-25T10:48:21.119Z,3.78
2022-09-25T10:53:40.326Z,3.88
2022-09-25T10:56:19.075Z,3.25
2022-09-25T10:58:56.142Z,3.13
2022-09-25T11:01:35.408Z,3.45
2022-09-25T11:04:15.974Z,3.65
2022-09-25T11:06:52.530Z,3.80
2022-09-25T11:09:27.844Z,2.92
2022-09-25T11:12:13.416Z,3.55
2022-09-25T11:14:56.395Z,3.60
2022-09-25T11:17:38.424Z,3.33
2022-09-25T11:20:29.312Z,3.33
2022-09-25T11:23:16.974Z,2.58
2022-09-25T11:25:58.258Z,3.28
2022-09-25T11:28:38.256Z,3.40
2022-09-25T11:31:20.192Z,3.10
2022-09-25T11:34:02.387Z,3.77
2022-09-25T11:36:42.460Z,2.92
2022-09-25T11:39:55.763Z,3.25
2022-09-25T11:45:16.545Z,2.95
2022-09-25T11:47:53.731Z,3.38
2022-09-25T11:50:35.973Z,3.40
2022-09-25T11:53:22.852Z,3.60
2022-09-25T11:56:12.219Z,3.13
2022-09-25T11:59:04.488Z,3.70
2022-09-25T12:01:43.543Z,2.72
2022-09-25T12:04:47.662Z,3.45
2022-09-25T12:07:49.937Z,3.92
2022-09-25T12:10:36.442Z,3.83
2022-09-25T12:13:19.229Z,3.33
2022-09-25T12:18:50.406Z,3.60
2022-09-25T12:24:11.530Z,3.40
2022-09-25T12:26:52.833Z,3.88
2022-09-25T12:29:40.101Z,3.85
2022-09-25T12:32:28.422Z,3.90
2022-09-25T12:35:22.182Z,3.50
2022-09-25T12:38:02.769Z,3.85
2022-09-25T12:40:41.018Z,3.88
2022-09-25T12:43:19.973Z,3.88
2022-09-25T12:45:59.156Z,2.92
2022-09-25T12:48:37.439Z,3.33
2022-09-25T12:51:17.655Z,4.00
2022-09-25T12:53:55.068Z,3.50
2022-09-25T12:56:34.591Z,3.30
2022-09-25T12:59:15.754Z,3.55
2022-09-25T13:01:57.232Z,3.45
2022-09-25T13:04:53.664Z,3.10
2022-09-25T13:07:36.640Z,3.92
2022-09-25T13:10:22.614Z,3.83
2022-09-25T13:12:58.977Z,3.75
2022-09-25T13:15:36.381Z,3.40
2022-09-25T13:18:23.934Z,3.83
2022-09-25T13:21:01.001Z,3.90
2022-09-25T13:23:38.483Z,3.58
2022-09-25T13:26:14.902Z,3.40
2022-09-25T13:28:53.981Z,3.67
2022-09-25T13:31:29.675Z,4.75
2022-09-25T13:34:06.838Z,3.28
2022-09-25T13:36:46.613Z,3.28
2022-09-25T13:39:43.676Z,4.13
2022-09-25T13:42:23.918Z,3.38
2022-09-25T13:45:07.908Z,3.88
2022-09-25T13:47:52.342Z,3.38
2022-09-25T13:50:31.670Z,3.05
2022-09-25T13:53:33.611Z,3.15
2022-09-25T13:56:45.920Z,3.33
2022-09-25T13:59:25.095Z,3.92
2022-09-25T14:02:25.197Z,4.32
2022-09-25T14:04:58.773Z,3.50
2022-09-25T14:07:32.293Z,4.10
2022-09-25T14:10:10.841Z,3.60
2022-09-25T14:12:49.075Z,5.22
2022-09-25T14:15:26.889Z,4.53
2022-09-25T14:18:02.011Z,4.32
2022-09-25T14:20:39.459Z,4.28
2022-09-25T14:23:15.495Z,5.07
2022-09-25T14:25:58.271Z,4.72
2022-09-25T14:28:35.698Z,3.92
2022-09-25T14:31:39.252Z,5.47
2022-09-25T14:34:26.360Z,5.25
2022-09-25T14:37:16.707Z,5.07
2022-09-25T14:40:04.069Z,4.63
2022-09-25T14:43:02.178Z,4.22
2022-09-25T14:45:59.793Z,4.90
2022-09-25T14:48:38.634Z,4.50
2022-09-25T14:51:15.098Z,4.97
2022-09-25T14:53:54.077Z,5.30
2022-09-25T14:56:33.374Z,5.88
2022-09-25T14:59:12.545Z,5.10
2022-09-25T15:01:50.561Z,5.43
2022-09-25T15:04:28.449Z,5.88
2022-09-25T15:07:06.070Z,5.43
2022-09-25T15:09:47.220Z,5.78
2022-09-25T15:12:24.646Z,6.57
2022-09-25T15:15:08.155Z,6.25
2022-09-25T15:17:49.555Z,5.05
2022-09-25T15:20:25.481Z,5.68
2022-09-25T15:23:03.605Z,6.03
2022-09-25T15:25:41.038Z,5.55
2022-09-25T15:28:18.002Z,5.40
2022-09-25T15:30:57.892Z,5.38
2022-09-25T15:33:34.317Z,5.35
2022-09-25T15:36:17.321Z,5.93
2022-09-25T15:38:54.892Z,5.88
2022-09-25T15:41:29.308Z,6.95
2022-09-25T15:44:14.991Z,7.13
2022-09-25T15:46:51.447Z,7.30
2022-09-25T15:49:31.896Z,7.22
2022-09-25T15:52:07.754Z,6.55
2022-09-25T15:54:45.842Z,7.40
2022-09-25T15:57:27.051Z,8.32
2022-09-25T16:00:24.064Z,6.57
2022-09-25T16:03:15.182Z,6.95
2022-09-25T16:05:51.827Z,7.07
2022-09-25T16:08:31.778Z,5.88
2022-09-25T16:11:16.868Z,6.80
2022-09-25T16:13:52.477Z,7.13
2022-09-25T16:16:29.556Z,7.20
2022-09-25T16:19:22.556Z,7.40
2022-09-25T16:21:59.834Z,5.97
2022-09-25T16:24:40.938Z,8.27
2022-09-25T16:27:25.508Z,6.97
2022-09-25T16:30:03.911Z,6.95
2022-09-25T16:32:39.023Z,8.30
2022-09-25T16:35:25.136Z,6.65
2022-09-25T16:38:00.236Z,7.82
2022-09-25T16:40:38.685Z,7.68
2022-09-25T16:43:27.636Z,8.57
2022-09-25T16:46:02.745Z,7.72
2022-09-25T16:48:39.164Z,8.63
2022-09-25T16:51:22.649Z,9.80
2022-09-25T16:53:59.275Z,9.10
2022-09-25T16:56:33.815Z,9.25
2022-09-25T16:59:17.338Z,11.25
2022-09-25T17:01:53.265Z,10.65
2022-09-25T17:04:28.716Z,10.30
2022-09-25T17:07:02.242Z,11.90
2022-09-25T17:09:37.131Z,11.68
2022-09-25T17:12:16.861Z,11.77
2022-09-25T17:14:51.292Z,12.38
2022-09-25T17:17:24.769Z,11.85
2022-09-25T17:19:58.297Z,10.68
2022-09-25T17:22:31.899Z,10.77
2022-09-25T17:25:20.434Z,9.95
2022-09-25T17:27:53.994Z,8.93
2022-09-25T17:30:31.005Z,8.82
2022-09-25T17:33:06.046Z,9.52
2022-09-25T17:35:45.951Z,10.50
2022-09-25T17:38:20.031Z,9.35
2022-09-25T17:41:00.456Z,9.25
2022-09-25T17:43:37.476Z,7.85
2022-09-25T17:46:11.260Z,9.85
2022-09-25T17:48:46.196Z,9.55
2022-09-25T17:51:23.157Z,9.55
2022-09-25T17:53:57.373Z,10.57
2022-09-25T17:56:34.803Z,9.18
2022-09-25T17:59:09.167Z,9.25
2022-09-25T18:01:42.857Z,9.68
2022-09-25T18:04:21.866Z,11.10
2022-09-25T18:06:56.684Z,9.52
2022-09-25T18:09:30.320Z,10.18
2022-09-25T18:12:05.356Z,10.23
2022-09-25T18:14:39.128Z,11.25
2022-09-25T18:17:16.854Z,12.68
2022-09-25T18:20:07.845Z,10.35
2022-09-25T18:22:41.699Z,10.55
2022-09-25T18:25:16.293Z,10.57
2022-09-25T18:27:51.300Z,11.77
2022-09-25T18:30:25.883Z,12.20
2022-09-25T18:32:59.438Z,12.57
2022-09-25T18:35:32.990Z,13.38
2022-09-25T18:38:06.562Z,11.70
2022-09-25T18:40:40.133Z,12.68
2022-09-25T18:43:15.253Z,12.07
2022-09-25T18:45:51.827Z,14.20
2022-09-25T18:48:25.913Z,12.40
2022-09-25T18:50:59.511Z,11.85
2022-09-25T18:53:33.887Z,12.30
2022-09-25T18:56:08.236Z,11.77
2022-09-25T18:58:43.542Z,10.73
2022-09-25T19:01:17.215Z,10.50
2022-09-25T19:03:51.955Z,9.35
2022-09-25T19:06:25.561Z,8.23
2022-09-25T19:08:59.446Z,7.82
2022-09-25T19:11:32.935Z,7.70
2022-09-25T19:14:07.956Z,8.48
2022-09-25T19:16:41.562Z,7.68
2022-09-25T19:19:15.439Z,7.85
2022-09-25T19:21:49.027Z,9.45
2022-09-25T19:24:22.761Z,7.57
2022-09-25T19:26:56.289Z,8.57
2022-09-25T19:29:35.744Z,7.43
2022-09-25T19:32:11.358Z,7.03
2022-09-25T19:34:45.837Z,8.55
2022-09-25T19:37:19.736Z,9.07
2022-09-25T19:40:10.757Z,7.53
2022-09-25T19:42:44.663Z,7.68
2022-09-25T19:45:21.228Z,7.45
2022-09-25T19:47:54.793Z,8.40
2022-09-25T19:50:28.405Z,8.13
2022-09-25T19:53:04.767Z,7.40
2022-09-25T19:55:40.907Z,9.00
2022-09-25T19:58:14.413Z,7.50
2022-09-25T20:00:50.499Z,7.47
2022-09-25T20:03:24.598Z,6.00
2022-09-25T20:05:58.084Z,6.00
2022-09-25T20:08:32.104Z,6.25
2022-09-25T20:11:13.403Z,6.20
2022-09-25T20:13:48.266Z,5.72
2022-09-25T20:16:25.403Z,8.30
2022-09-25T20:19:01.879Z,7.05
2022-09-25T20:21:37.804Z,7.43
2022-09-25T20:24:11.325Z,8.35
2022-09-25T20:26:44.866Z,6.95
2022-09-25T20:29:19.793Z,7.47
2022-09-25T20:31:54.995Z,8.70
2022-09-25T20:34:28.489Z,9.52
2022-09-25T20:37:03.693Z,8.98
2022-09-25T20:39:37.876Z,9.68
2022-09-25T20:42:11.455Z,9.10
2022-09-25T20:44:44.929Z,9.23
2022-09-25T20:47:19.820Z,7.65
2022-09-25T20:49:53.285Z,7.28
2022-09-25T20:52:27.070Z,6.93
2022-09-25T20:55:00.578Z,6.90
2022-09-25T20:57:34.280Z,5.82
2022-09-25T21:00:09.089Z,6.05
2022-09-25T21:02:44.017Z,6.25
2022-09-25T21:05:17.712Z,6.28
2022-09-25T21:07:51.213Z,5.70
2022-09-25T21:10:24.687Z,4.82
2022-09-25T21:12:58.139Z,4.35
2022-09-25T21:15:31.835Z,5.63
2022-09-25T21:18:07.185Z,5.88
2022-09-25T21:20:40.692Z,5.40
2022-09-25T21:23:14.172Z,4.28
2022-09-25T21:25:47.631Z,4.60
2022-09-25T21:28:21.802Z,4.78
2022-09-25T21:30:55.334Z,4.32
2022-09-25T21:33:30.241Z,5.47
2022-09-25T21:36:05.024Z,5.38
2022-09-25T21:38:38.619Z,5.80
2022-09-25T21:41:14.594Z,6.20
2022-09-25T21:43:48.815Z,7.53
2022-09-25T21:46:22.423Z,6.63
2022-09-25T21:48:58.966Z,6.32
2022-09-25T21:51:34.377Z,5.25
2022-09-25T21:54:10.105Z,4.93
2022-09-25T21:56:44.451Z,5.53
2022-09-25T21:59:18.069Z,4.95
2022-09-25T22:01:51.872Z,4.25
2022-09-25T22:04:26.847Z,4.20
2022-09-25T22:07:00.830Z,4.53
2022-09-25T22:09:34.265Z,4.63
2022-09-25T22:12:07.775Z,5.57
2022-09-25T22:14:41.242Z,6.15
2022-09-25T22:17:14.748Z,6.25
2022-09-25T22:19:49.642Z,7.10
2022-09-25T22:22:23.062Z,5.97
2022-09-25T22:24:56.526Z,6.80
2022-09-25T22:27:30.002Z,8.23
2022-09-25T22:30:03.464Z,7.75
2022-09-25T22:32:36.943Z,6.18
2022-09-25T22:35:11.886Z,7.00
2022-09-25T22:37:45.433Z,7.00
2022-09-25T22:40:18.916Z,6.38
2022-09-25T22:42:52.438Z,6.18
2022-09-25T22:45:25.920Z,5.88
2022-09-25T22:48:00.519Z,7.07
2022-09-25T22:50:35.388Z,6.25
2022-09-25T22:53:09.319Z,7.15
2022-09-25T22:55:42.778Z,6.00
2022-09-25T22:58:16.532Z,8.60
2022-09-25T23:00:52.437Z,7.20
2022-09-25T23:03:25.968Z,8.70
2022-09-25T23:06:03.434Z,9.20
2022-09-25T23:08:37.004Z,8.63
2022-09-25T23:11:10.635Z,8.95
2022-09-25T23:13:44.125Z,8.38
2022-09-25T23:16:18.838Z,8.73
2022-09-25T23:18:52.317Z,7.72
2022-09-25T23:21:28.020Z,7.88
2022-09-25T23:24:03.300Z,7.75
2022-09-25T23:26:36.858Z,7.63
2022-09-25T23:29:13.136Z,7.30
2022-09-25T23:31:48.706Z,7.38
2022-09-25T23:34:22.186Z,9.18
2022-09-25T23:36:57.201Z,8.18
2022-09-25T23:39:30.846Z,8.02
2022-09-25T23:42:04.438Z,6.85
2022-09-25T23:44:37.895Z,7.82
2022-09-25T23:47:11.465Z,8.18
2022-09-25T23:49:44.941Z,8.30
2022-09-25T23:52:20.016Z,8.52
2022-09-25T23:54:53.539Z,10.00
2022-09-25T23:57:27.010Z,8.85
